createdAt,value
2019-04-04T05:06:16.945Z,7.11
2019-04-04T05:08:44.238Z,7.16
2019-04-04T05:11:14.291Z,7.12
2019-04-04T05:13:40.559Z,7.16
2019-04-04T05:16:08.999Z,7.18
2019-04-04T05:18:36.278Z,7.14
2019-04-04T05:21:03.753Z,7.11
2019-04-04T05:23:30.910Z,7.06
2019-04-04T05:25:58.064Z,7.04
2019-04-04T05:28:25.216Z,6.96
2019-04-04T05:30:52.582Z,6.89
2019-04-04T05:33:22.621Z,7.08
2019-04-04T05:35:49.946Z,7.04
2019-04-04T05:38:17.220Z,7.11
2019-04-04T05:40:44.470Z,7.20
2019-04-04T05:43:14.749Z,7.15
2019-04-04T05:45:40.889Z,7.28
2019-04-04T05:48:08.250Z,7.21
2019-04-04T05:50:35.506Z,7.25
2019-04-04T05:53:04.282Z,7.26
2019-04-04T05:55:31.836Z,7.26
2019-04-04T05:57:59.022Z,7.25
2019-04-04T06:00:27.465Z,7.23
2019-04-04T06:02:55.333Z,7.27
2019-04-04T06:05:22.612Z,7.31
2019-04-04T06:07:50.014Z,7.29
2019-04-04T06:10:18.539Z,7.36
2019-04-04T06:12:46.415Z,7.41
2019-04-04T06:15:13.886Z,7.43
2019-04-04T06:17:41.161Z,7.38
2019-04-04T06:20:09.218Z,7.46
2019-04-04T06:22:36.470Z,7.40
2019-04-04T06:25:05.216Z,7.46
2019-04-04T06:27:32.480Z,7.46
2019-04-04T06:29:59.626Z,7.43
2019-04-04T06:32:26.780Z,7.48
2019-04-04T06:34:56.562Z,7.51
2019-04-04T06:37:23.252Z,7.48
2019-04-04T06:39:50.710Z,7.50
2019-04-04T06:42:17.969Z,7.62
2019-04-04T06:44:45.153Z,7.61
2019-04-04T06:47:12.307Z,7.70
2019-04-04T06:49:39.457Z,7.71
2019-04-04T06:52:09.277Z,7.74
2019-04-04T06:54:35.897Z,7.82
2019-04-04T06:57:03.898Z,7.84
2019-04-04T06:59:32.312Z,7.77
2019-04-04T07:01:59.966Z,7.80
2019-04-04T07:04:27.102Z,7.79
2019-04-04T07:06:54.476Z,7.71
2019-04-04T07:09:21.683Z,7.65
2019-04-04T07:11:48.799Z,7.72
2019-04-04T07:14:15.957Z,7.69
2019-04-04T07:16:43.153Z,7.65
2019-04-04T07:19:14.191Z,7.53
2019-04-04T07:21:39.419Z,7.65
2019-04-04T07:24:06.657Z,7.65
2019-04-04T07:26:33.930Z,7.73
2019-04-04T07:29:01.195Z,7.71
2019-04-04T07:31:28.342Z,7.68
2019-04-04T07:33:55.513Z,7.75
2019-04-04T07:36:22.868Z,7.59
2019-04-04T07:38:50.086Z,7.69
2019-04-04T07:41:17.258Z,7.71
2019-04-04T07:43:44.409Z,7.74
2019-04-04T07:46:16.565Z,7.75
2019-04-04T07:48:40.714Z,7.74
2019-04-04T07:51:08.012Z,7.78
2019-04-04T07:53:36.444Z,7.70
2019-04-04T07:56:04.517Z,7.72
2019-04-04T07:58:31.796Z,7.66
2019-04-04T08:00:58.982Z,7.74
2019-04-04T08:03:26.228Z,7.70
2019-04-04T08:05:53.375Z,7.70
2019-04-04T08:08:20.626Z,7.69
2019-04-04T08:10:47.881Z,7.81
2019-04-04T08:13:15.254Z,7.70
2019-04-04T08:15:42.507Z,7.78
2019-04-04T08:18:09.660Z,7.75
2019-04-04T08:20:37.211Z,7.89
2019-04-04T08:23:04.499Z,7.86
2019-04-04T08:25:31.654Z,7.94
2019-04-04T08:27:58.823Z,7.99
2019-04-04T08:30:26.396Z,8.02
2019-04-04T08:32:53.534Z,7.93
2019-04-04T08:35:20.669Z,8.01
2019-04-04T08:37:47.961Z,7.98
2019-04-04T08:40:15.394Z,8.12
2019-04-04T08:42:42.539Z,8.15
2019-04-04T08:45:10.103Z,8.21
2019-04-04T08:47:37.453Z,8.21
2019-04-04T08:50:05.159Z,8.31
2019-04-04T08:52:32.417Z,8.26
2019-04-04T08:54:59.676Z,8.28
2019-04-04T08:57:27.017Z,8.40
2019-04-04T08:59:54.161Z,8.35
2019-04-04T09:02:21.573Z,8.37
2019-04-04T09:04:48.716Z,8.42
2019-04-04T09:07:15.880Z,8.58
2019-04-04T09:09:43.203Z,8.50
2019-04-04T09:12:10.915Z,8.56
2019-04-04T09:14:40.944Z,8.56
2019-04-04T09:17:07.778Z,8.50
2019-04-04T09:19:35.052Z,8.53
2019-04-04T09:22:02.569Z,8.60
2019-04-04T09:24:29.745Z,8.59
2019-04-04T09:26:57.149Z,8.52
2019-04-04T09:29:24.409Z,8.51
2019-04-04T09:31:51.755Z,8.78
2019-04-04T09:34:19.016Z,8.82
2019-04-04T09:36:46.283Z,8.89
2019-04-04T09:39:13.660Z,8.90
2019-04-04T09:41:40.926Z,9.00
2019-04-04T09:44:08.285Z,9.08
2019-04-04T09:46:35.543Z,9.14
2019-04-04T09:49:03.103Z,9.22
2019-04-04T09:51:30.359Z,9.36
2019-04-04T09:53:57.497Z,9.15
2019-04-04T09:56:24.860Z,9.34
2019-04-04T09:58:54.772Z,9.31
2019-04-04T10:01:21.377Z,9.34
2019-04-04T10:03:48.986Z,9.47
2019-04-04T10:06:16.252Z,9.49
2019-04-04T10:08:43.411Z,9.47
2019-04-04T10:11:10.593Z,9.59
2019-04-04T10:13:37.842Z,9.69
2019-04-04T10:16:05.401Z,9.69
2019-04-04T10:18:32.667Z,9.88
2019-04-04T10:21:11.119Z,9.84
2019-04-04T10:23:28.857Z,9.80
2019-04-04T10:25:56.013Z,9.76
2019-04-04T10:28:23.565Z,9.84
2019-04-04T10:30:50.885Z,9.79
2019-04-04T10:33:18.050Z,9.92
2019-04-04T10:35:45.319Z,9.89
2019-04-04T10:38:12.579Z,9.78
2019-04-04T10:40:39.846Z,9.81
2019-04-04T10:43:06.983Z,10.02
2019-04-04T10:45:34.233Z,9.94
2019-04-04T10:48:01.490Z,9.97
2019-04-04T10:50:28.732Z,9.88
2019-04-04T10:52:56.213Z,9.86
2019-04-04T10:55:23.769Z,9.76
2019-04-04T10:57:51.014Z,9.79
2019-04-04T11:00:18.782Z,9.77
2019-04-04T11:02:45.983Z,9.62
2019-04-04T11:05:13.634Z,9.65
2019-04-04T11:07:40.895Z,9.66
2019-04-04T11:10:08.586Z,9.72
2019-04-04T11:12:35.829Z,9.71
2019-04-04T11:15:03.773Z,9.70
2019-04-04T11:17:30.991Z,9.82
2019-04-04T11:19:58.253Z,9.77
2019-04-04T11:22:25.428Z,9.77
2019-04-04T11:24:52.596Z,9.81
2019-04-04T11:27:19.763Z,9.69
2019-04-04T11:29:47.105Z,9.87
2019-04-04T11:32:14.483Z,9.85
2019-04-04T11:34:52.663Z,9.78
2019-04-04T11:37:10.801Z,9.83
2019-04-04T11:39:38.434Z,9.79
2019-04-04T11:42:06.078Z,9.65
2019-04-04T11:44:33.750Z,9.80
2019-04-04T11:47:01.295Z,9.77
2019-04-04T11:49:28.553Z,9.68
2019-04-04T11:51:56.013Z,9.81
2019-04-04T11:54:23.846Z,9.84
2019-04-04T11:56:51.392Z,9.78
2019-04-04T11:59:19.015Z,9.81
2019-04-04T12:01:46.582Z,9.78
2019-04-04T12:04:14.719Z,9.84
2019-04-04T12:06:42.283Z,9.73
2019-04-04T12:09:09.558Z,9.66
2019-04-04T12:11:36.890Z,9.82
2019-04-04T12:14:05.016Z,9.73
2019-04-04T12:16:32.957Z,9.71
2019-04-04T12:19:00.456Z,9.64
2019-04-04T12:21:27.621Z,9.61
2019-04-04T12:23:54.870Z,9.80
2019-04-04T12:26:22.139Z,9.76
2019-04-04T12:28:49.676Z,9.73
2019-04-04T12:31:17.237Z,9.79
2019-04-04T12:33:44.698Z,9.81
2019-04-04T12:36:23.819Z,9.80
2019-04-04T12:38:41.335Z,9.83
2019-04-04T12:41:08.790Z,9.84
2019-04-04T12:43:36.525Z,9.81
2019-04-04T12:46:03.982Z,9.74
2019-04-04T12:48:31.544Z,9.74
2019-04-04T12:50:58.919Z,9.85
2019-04-04T12:53:26.228Z,9.78
2019-04-04T12:55:54.315Z,9.67
2019-04-04T12:58:22.290Z,9.66
2019-04-04T13:00:49.701Z,9.72
2019-04-04T13:03:17.195Z,9.73
2019-04-04T13:05:44.376Z,9.70
2019-04-04T13:08:11.751Z,9.83
2019-04-04T13:10:39.279Z,9.95
2019-04-04T13:13:06.843Z,9.66
2019-04-04T13:15:34.177Z,9.80
2019-04-04T13:18:01.576Z,9.65
2019-04-04T13:20:29.319Z,9.63
2019-04-04T13:22:56.853Z,9.60
2019-04-04T13:25:24.207Z,9.78
2019-04-04T13:27:51.951Z,9.58
2019-04-04T13:30:19.912Z,9.67
2019-04-04T13:32:47.233Z,9.71
2019-04-04T13:35:14.595Z,9.83
2019-04-04T13:37:42.427Z,9.90
2019-04-04T13:40:10.212Z,9.78
2019-04-04T13:42:37.857Z,9.82
2019-04-04T13:45:07.472Z,9.79
2019-04-04T13:47:38.097Z,9.51
2019-04-04T13:50:06.098Z,9.48
2019-04-04T13:52:34.152Z,9.49
2019-04-04T13:55:01.505Z,9.41
2019-04-04T13:57:28.698Z,9.39
2019-04-04T13:59:55.958Z,9.42
2019-04-04T14:02:23.478Z,9.14
2019-04-04T14:04:50.748Z,9.12
2019-04-04T14:07:18.010Z,9.22
2019-04-04T14:09:45.361Z,9.33
2019-04-04T14:12:14.327Z,9.25
2019-04-04T14:14:42.130Z,9.07
2019-04-04T14:17:09.414Z,9.24
2019-04-04T14:19:39.219Z,9.08
2019-04-04T14:22:06.851Z,9.15
2019-04-04T14:24:34.469Z,9.21
2019-04-04T14:27:03.716Z,9.22
2019-04-04T14:29:31.142Z,9.15
2019-04-04T14:31:58.409Z,9.01
2019-04-04T14:34:25.892Z,9.13
2019-04-04T14:36:55.503Z,9.14
2019-04-04T14:39:22.940Z,9.16
2019-04-04T14:41:50.261Z,9.26
2019-04-04T14:44:17.923Z,9.19
2019-04-04T14:46:48.314Z,9.15
2019-04-04T14:49:17.203Z,9.13
2019-04-04T14:51:48.642Z,9.12
2019-04-04T14:54:18.417Z,9.30
2019-04-04T14:56:48.862Z,9.26
2019-04-04T14:59:16.286Z,9.35
2019-04-04T15:01:43.693Z,9.41
2019-04-04T15:04:11.033Z,9.40
2019-04-04T15:06:38.313Z,9.41
2019-04-04T15:09:09.105Z,9.36
2019-04-04T15:11:36.546Z,9.39
2019-04-04T15:14:03.994Z,9.41
2019-04-04T15:16:31.664Z,9.33
2019-04-04T15:18:58.918Z,9.34
2019-04-04T15:21:26.166Z,9.27
2019-04-04T15:23:53.347Z,9.32
2019-04-04T15:26:20.619Z,9.27
2019-04-04T15:28:48.105Z,9.32
2019-04-04T15:31:15.631Z,9.26
2019-04-04T15:33:43.087Z,9.19
2019-04-04T15:36:10.580Z,9.19
2019-04-04T15:38:37.871Z,9.23
2019-04-04T15:41:05.616Z,9.26
2019-04-04T15:43:32.881Z,9.30
2019-04-04T15:46:00.226Z,9.27
2019-04-04T15:48:27.613Z,9.17
2019-04-04T15:50:59.598Z,9.13
2019-04-04T15:53:29.827Z,9.14
2019-04-04T15:56:00.337Z,9.17
2019-04-04T15:58:27.777Z,9.09
2019-04-04T16:00:55.184Z,9.07
2019-04-04T16:03:22.541Z,9.14
2019-04-04T16:05:49.685Z,8.99
2019-04-04T16:08:17.127Z,8.88
2019-04-04T16:10:47.701Z,8.80
2019-04-04T16:13:15.254Z,8.92
2019-04-04T16:15:42.413Z,8.75
2019-04-04T16:18:10.943Z,8.76
2019-04-04T16:20:38.332Z,8.84
2019-04-04T16:23:05.611Z,8.67
2019-04-04T16:25:33.274Z,8.75
2019-04-04T16:28:00.702Z,8.69
2019-04-04T16:30:27.903Z,8.64
2019-04-04T16:32:55.385Z,8.70
2019-04-04T16:35:22.908Z,8.38
2019-04-04T16:37:50.390Z,8.56
2019-04-04T16:40:20.016Z,8.41
2019-04-04T16:42:47.590Z,8.36
2019-04-04T16:45:15.085Z,8.33
2019-04-04T16:47:42.971Z,8.34
2019-04-04T16:50:11.365Z,8.41
2019-04-04T16:52:38.790Z,8.42
2019-04-04T16:55:07.028Z,8.43
2019-04-04T16:57:34.416Z,8.36
2019-04-04T17:00:05.351Z,8.37
2019-04-04T17:02:34.274Z,8.34
2019-04-04T17:05:01.775Z,8.31
2019-04-04T17:07:29.145Z,8.23
2019-04-04T17:09:59.390Z,8.25
2019-04-04T17:12:26.730Z,8.29
2019-04-04T17:14:53.991Z,8.31
2019-04-04T17:17:21.379Z,8.25
2019-04-04T17:19:48.697Z,8.28
2019-04-04T17:22:15.979Z,8.32
2019-04-04T17:24:43.473Z,8.28
2019-04-04T17:27:10.757Z,8.31
2019-04-04T17:29:38.527Z,8.23
2019-04-04T17:32:06.400Z,8.20
2019-04-04T17:34:34.063Z,8.22
2019-04-04T17:37:01.536Z,8.24
2019-04-04T17:39:28.963Z,8.20
2019-04-04T17:41:56.126Z,8.25
2019-04-04T17:44:23.997Z,8.12
2019-04-04T17:46:51.716Z,8.11
2019-04-04T17:49:19.250Z,8.00
2019-04-04T17:51:46.911Z,8.01
2019-04-04T17:54:14.357Z,8.03
2019-04-04T17:56:42.121Z,8.00
2019-04-04T17:59:09.554Z,7.97
2019-04-04T18:01:38.229Z,7.99
2019-04-04T18:04:05.701Z,7.96
2019-04-04T18:06:32.850Z,7.93
2019-04-04T18:09:00.095Z,7.94
2019-04-04T18:11:27.537Z,7.93
2019-04-04T18:13:54.794Z,7.92
2019-04-04T18:16:22.046Z,7.85
2019-04-04T18:18:49.568Z,7.88
2019-04-04T18:21:17.138Z,7.93
2019-04-04T18:23:44.860Z,7.92
2019-04-04T18:26:12.356Z,7.85
2019-04-04T18:28:39.836Z,7.86
2019-04-04T18:31:07.220Z,7.77
2019-04-04T18:33:36.698Z,7.76
2019-04-04T18:36:04.670Z,7.76
2019-04-04T18:38:32.118Z,7.79
2019-04-04T18:40:59.810Z,7.80
2019-04-04T18:43:27.081Z,7.82
2019-04-04T18:45:55.879Z,7.74
2019-04-04T18:48:23.184Z,7.73
2019-04-04T18:51:00.283Z,7.70
2019-04-04T18:53:29.534Z,7.73
2019-04-04T18:55:59.917Z,7.69
2019-04-04T18:58:27.700Z,7.70
2019-04-04T19:00:55.292Z,7.64
2019-04-04T19:03:23.753Z,7.63
2019-04-04T19:05:52.745Z,7.66
2019-04-04T19:08:23.081Z,7.65
2019-04-04T19:10:52.966Z,7.63
2019-04-04T19:13:20.495Z,7.63
2019-04-04T19:15:49.316Z,7.65
2019-04-04T19:18:16.827Z,7.59
2019-04-04T19:20:44.420Z,7.59
2019-04-04T19:23:12.035Z,7.63
2019-04-04T19:25:39.553Z,7.63
2019-04-04T19:28:10.220Z,7.61
2019-04-04T19:30:38.553Z,7.60
2019-04-04T19:33:06.360Z,7.60
2019-04-04T19:35:41.589Z,7.48
2019-04-04T19:38:11.695Z,7.54
2019-04-04T19:40:41.196Z,7.58
2019-04-04T19:43:18.288Z,7.54
2019-04-04T19:45:43.363Z,7.56
2019-04-04T19:48:10.853Z,7.56
2019-04-04T19:50:39.325Z,7.54
2019-04-04T19:53:07.200Z,7.52
2019-04-04T19:55:34.562Z,7.52
2019-04-04T19:58:01.841Z,7.50
2019-04-04T20:00:31.998Z,7.46
2019-04-04T20:02:58.350Z,7.48
2019-04-04T20:05:26.058Z,7.47
2019-04-04T20:07:53.637Z,7.53
2019-04-04T20:10:21.058Z,7.50
2019-04-04T20:12:48.428Z,7.58
2019-04-04T20:15:15.990Z,7.50
2019-04-04T20:17:43.214Z,7.48
2019-04-04T20:20:11.183Z,7.53
2019-04-04T20:22:38.946Z,7.50
2019-04-04T20:25:06.631Z,7.46
2019-04-04T20:27:34.095Z,7.38
2019-04-04T20:30:01.652Z,7.47
2019-04-04T20:32:29.019Z,7.45
2019-04-04T20:34:56.423Z,7.43
2019-04-04T20:37:23.814Z,7.50
2019-04-04T20:39:51.065Z,7.43
2019-04-04T20:42:18.307Z,7.44
2019-04-04T20:44:45.537Z,7.43
2019-04-04T20:47:12.955Z,7.43
2019-04-04T20:49:40.228Z,7.40
2019-04-04T20:52:07.667Z,7.42
2019-04-04T20:54:35.038Z,7.34
2019-04-04T20:57:02.526Z,7.34
2019-04-04T20:59:29.801Z,7.35
2019-04-04T21:01:57.785Z,7.31
2019-04-04T21:04:25.058Z,7.38
2019-04-04T21:06:53.832Z,7.39
2019-04-04T21:09:21.268Z,7.36
2019-04-04T21:11:48.749Z,7.35
2019-04-04T21:14:16.113Z,7.29
2019-04-04T21:16:43.622Z,7.32
2019-04-04T21:19:10.924Z,7.28
2019-04-04T21:21:38.210Z,7.31
2019-04-04T21:24:06.619Z,7.32
2019-04-04T21:26:33.941Z,7.28
2019-04-04T21:29:01.112Z,7.27
2019-04-04T21:31:28.764Z,7.29
2019-04-04T21:33:56.144Z,7.27
2019-04-04T21:36:23.501Z,7.25
2019-04-04T21:38:51.111Z,7.32
2019-04-04T21:41:18.382Z,7.25
2019-04-04T21:43:45.674Z,7.31
2019-04-04T21:46:12.930Z,7.27
2019-04-04T21:48:40.476Z,7.23
2019-04-04T21:51:07.748Z,7.17
2019-04-04T21:53:35.223Z,7.20
2019-04-04T21:56:02.647Z,7.22
2019-04-04T21:58:30.249Z,7.21
2019-04-04T22:00:58.940Z,7.21
2019-04-04T22:03:32.110Z,7.15
2019-04-04T22:05:59.990Z,7.15
2019-04-04T22:08:27.318Z,7.11
2019-04-04T22:10:54.711Z,7.15
2019-04-04T22:13:21.998Z,7.14
2019-04-04T22:15:49.395Z,7.07
2019-04-04T22:18:16.615Z,7.08
2019-04-04T22:20:45.093Z,7.09
2019-04-04T22:23:17.603Z,7.12
2019-04-04T22:25:45.203Z,7.08
2019-04-04T22:28:15.539Z,7.06
2019-04-04T22:30:43.900Z,7.02
2019-04-04T22:33:11.157Z,7.08
2019-04-04T22:35:38.517Z,7.07
2019-04-04T22:38:05.918Z,7.04
2019-04-04T22:40:33.612Z,7.06
2019-04-04T22:43:00.897Z,7.01
2019-04-04T22:45:28.261Z,6.90
2019-04-04T22:47:55.663Z,6.88
2019-04-04T22:50:22.830Z,6.90
2019-04-04T22:52:50.690Z,6.81
2019-04-04T22:55:18.055Z,6.79
2019-04-04T22:57:45.554Z,6.76
2019-04-04T23:00:13.724Z,6.81
2019-04-04T23:02:40.868Z,6.84
2019-04-04T23:05:11.602Z,6.69
2019-04-04T23:07:39.092Z,6.80
2019-04-04T23:10:08.270Z,6.73
2019-04-04T23:12:35.867Z,6.74
2019-04-04T23:15:04.001Z,6.72
2019-04-04T23:17:31.413Z,6.77
2019-04-04T23:19:58.574Z,6.81
2019-04-04T23:22:25.997Z,6.82
2019-04-04T23:24:53.280Z,6.80
2019-04-04T23:27:20.431Z,6.82
2019-04-04T23:29:47.828Z,6.81
2019-04-04T23:32:15.402Z,6.80
2019-04-04T23:34:42.552Z,6.82
2019-04-04T23:37:10.034Z,6.86
2019-04-04T23:39:37.229Z,6.81
2019-04-04T23:42:05.012Z,6.78
2019-04-04T23:44:32.158Z,6.77
2019-04-04T23:46:59.440Z,6.74
2019-04-04T23:49:26.648Z,6.80
2019-04-04T23:51:53.824Z,6.86
2019-04-04T23:54:20.980Z,6.76
2019-04-04T23:56:48.221Z,6.81
2019-04-04T23:59:15.429Z,6.84
